Chanute Martin Johnson Airport Chanute US
ICAO: KCNU
IATA: CNU
Category: Medium
Scheduled Services: No

Elevation: 1002 ft
TransAlt. 18000 ft.

Airport Communications:
ASOS:127.075
KANSAS CITY CNTR:132.9
WICHITA RDO:122.35
CTAF/UNICOM:122.7

KCNU Zoom In..

If you have problems with the map follow the link
https://www.worldairports.se/pages/airport.php?
ICAO=KCNU

Runways:

(A) RW 18 length 4255 ft width 75 ft
---- / hdg 182

(B) RW 36 length 4255 ft width 75 ft
---- / hdg 2

Location; KCNU
Day. 16 / Time. 11.52 Zulu
* Altimeter: 30.13
* Temperature: -03° c. -26.6°f.
* Wind from: 330° Speed 03 kn.
Dewpoint: -03° c.
Visibility: 6 Statute Miles.
Clouds: Clear (automated report).
Conditions: Mist.

KCNU 161152Z AUTO 33003KT 6SM BR CLR M03/M03 A3013 RMK AO2 SLP207 I1001 I6001 T10281033 10039 21039 53006


Wind From 330°
Speed 03 kn.

 
 
jpsmedia.com for Web Design worldairports.se 2018   terms of use